sensor_id;sensor_type;location;lat;lon;timestamp;pressure;altitude;pressure_sealevel;temperature;humidity
28167;BME280;15455;53.376;-6.262;2023-10-31T00:01:31;99220.13;;;4.61;100.00
28167;BME280;15455;53.376;-6.262;2023-10-31T00:04:17;99228.72;;;4.50;100.00
28167;BME280;15455;53.376;-6.262;2023-10-31T00:07:03;99215.84;;;4.44;100.00
28167;BME280;15455;53.376;-6.262;2023-10-31T00:09:49;99227.03;;;4.42;100.00
28167;BME280;15455;53.376;-6.262;2023-10-31T00:12:34;99233.06;;;4.47;100.00
28167;BME280;15455;53.376;-6.262;2023-10-31T00:15:20;99238.22;;;4.53;100.00
28167;BME280;15455;53.376;-6.262;2023-10-31T00:18:06;99239.94;;;4.52;100.00
28167;BME280;15455;53.376;-6.262;2023-10-31T00:20:51;99244.25;;;4.49;100.00
28167;BME280;15455;53.376;-6.262;2023-10-31T00:23:47;99243.34;;;4.59;100.00
28167;BME280;15455;53.376;-6.262;2023-10-31T00:26:33;99246.78;;;4.66;100.00
28167;BME280;15455;53.376;-6.262;2023-10-31T00:29:18;99255.38;;;4.77;100.00
28167;BME280;15455;53.376;-6.262;2023-10-31T00:32:04;99257.91;;;4.93;100.00
28167;BME280;15455;53.376;-6.262;2023-10-31T00:34:51;99257.75;;;5.28;100.00
28167;BME280;15455;53.376;-6.262;2023-10-31T00:37:38;99267.97;;;5.57;100.00
28167;BME280;15455;53.376;-6.262;2023-10-31T00:40:24;99271.25;;;5.81;100.00
28167;BME280;15455;53.376;-6.262;2023-10-31T00:43:10;99267.69;;;5.95;100.00
28167;BME280;15455;53.376;-6.262;2023-10-31T00:45:56;99272.84;;;6.04;100.00
28167;BME280;15455;53.376;-6.262;2023-10-31T00:48:42;99271.06;;;6.09;100.00
28167;BME280;15455;53.376;-6.262;2023-10-31T00:51:27;99268.41;;;6.17;100.00
28167;BME280;15455;53.376;-6.262;2023-10-31T00:54:13;99264.91;;;6.24;100.00
28167;BME280;15455;53.376;-6.262;2023-10-31T00:56:59;99266.56;;;6.30;100.00
28167;BME280;15455;53.376;-6.262;2023-10-31T00:59:45;99267.38;;;6.35;100.00
28167;BME280;15455;53.376;-6.262;2023-10-31T01:02:30;99263.88;;;6.42;100.00
28167;BME280;15455;53.376;-6.262;2023-10-31T01:05:16;99255.19;;;6.46;100.00
28167;BME280;15455;53.376;-6.262;2023-10-31T01:08:02;99263.81;;;6.47;100.00
28167;BME280;15455;53.376;-6.262;2023-10-31T01:10:47;99264.69;;;6.49;100.00
28167;BME280;15455;53.376;-6.262;2023-10-31T01:13:33;99272.41;;;6.53;100.00
28167;BME280;15455;53.376;-6.262;2023-10-31T01:16:18;99271.50;;;6.56;100.00
28167;BME280;15455;53.376;-6.262;2023-10-31T01:19:04;99279.28;;;6.56;100.00
28167;BME280;15455;53.376;-6.262;2023-10-31T01:21:50;99269.81;;;6.53;100.00
28167;BME280;15455;53.376;-6.262;2023-10-31T01:24:35;99272.41;;;6.52;100.00
28167;BME280;15455;53.376;-6.262;2023-10-31T01:27:20;99274.16;;;6.50;100.00
28167;BME280;15455;53.376;-6.262;2023-10-31T01:30:06;99279.31;;;6.51;100.00
28167;BME280;15455;53.376;-6.262;2023-10-31T01:32:52;99279.28;;;6.53;100.00
28167;BME280;15455;53.376;-6.262;2023-10-31T01:35:37;99275.00;;;6.52;100.00
28167;BME280;15455;53.376;-6.262;2023-10-31T01:38:23;99273.28;;;6.51;100.00
28167;BME280;15455;53.376;-6.262;2023-10-31T01:41:09;99271.56;;;6.50;100.00
28167;BME280;15455;53.376;-6.262;2023-10-31T01:43:54;99274.16;;;6.50;100.00
28167;BME280;15455;53.376;-6.262;2023-10-31T01:46:40;99277.59;;;6.53;100.00
28167;BME280;15455;53.376;-6.262;2023-10-31T01:49:26;99283.56;;;6.57;100.00
28167;BME280;15455;53.376;-6.262;2023-10-31T01:52:11;99284.44;;;6.59;100.00
28167;BME280;15455;53.376;-6.262;2023-10-31T01:54:57;99291.34;;;6.62;100.00
28167;BME280;15455;53.376;-6.262;2023-10-31T01:57:44;99291.31;;;6.65;100.00
28167;BME280;15455;53.376;-6.262;2023-10-31T02:00:31;99297.31;;;6.67;100.00
28167;BME280;15455;53.376;-6.262;2023-10-31T02:03:17;99305.03;;;6.73;100.00
28167;BME280;15455;53.376;-6.262;2023-10-31T02:06:03;99293.75;;;6.77;100.00
28167;BME280;15455;53.376;-6.262;2023-10-31T02:08:48;99298.03;;;6.81;100.00
28167;BME280;15455;53.376;-6.262;2023-10-31T02:11:34;99304.06;;;6.85;100.00
28167;BME280;15455;53.376;-6.262;2023-10-31T02:14:22;99305.72;;;6.89;100.00
28167;BME280;15455;53.376;-6.262;2023-10-31T02:17:07;99305.69;;;6.90;100.00
28167;BME280;15455;53.376;-6.262;2023-10-31T02:19:53;99306.50;;;6.97;100.00
28167;BME280;15455;53.376;-6.262;2023-10-31T02:22:39;99313.34;;;7.03;100.00
28167;BME280;15455;53.376;-6.262;2023-10-31T02:25:24;99321.97;;;7.06;100.00
28167;BME280;15455;53.376;-6.262;2023-10-31T02:28:10;99322.84;;;7.07;100.00
28167;BME280;15455;53.376;-6.262;2023-10-31T02:30:55;99324.53;;;7.11;100.00
28167;BME280;15455;53.376;-6.262;2023-10-31T02:33:41;99322.72;;;7.16;100.00
28167;BME280;15455;53.376;-6.262;2023-10-31T02:36:26;99327.84;;;7.19;100.00
28167;BME280;15455;53.376;-6.262;2023-10-31T02:39:12;99322.66;;;7.24;100.00
28167;BME280;15455;53.376;-6.262;2023-10-31T02:41:57;99322.59;;;7.28;100.00
28167;BME280;15455;53.376;-6.262;2023-10-31T02:44:43;99329.47;;;7.33;100.00
28167;BME280;15455;53.376;-6.262;2023-10-31T02:47:28;99325.97;;;7.35;100.00
28167;BME280;15455;53.376;-6.262;2023-10-31T02:50:14;99332.00;;;7.36;100.00
28167;BME280;15455;53.376;-6.262;2023-10-31T02:52:59;99334.59;;;7.37;100.00
28167;BME280;15455;53.376;-6.262;2023-10-31T02:55:45;99330.22;;;7.39;100.00
28167;BME280;15455;53.376;-6.262;2023-10-31T02:58:30;99328.50;;;7.40;100.00
28167;BME280;15455;53.376;-6.262;2023-10-31T03:01:16;99331.06;;;7.41;100.00
28167;BME280;15455;53.376;-6.262;2023-10-31T03:04:03;99337.06;;;7.46;100.00
28167;BME280;15455;53.376;-6.262;2023-10-31T03:06:49;99332.72;;;7.48;100.00
28167;BME280;15455;53.376;-6.262;2023-10-31T03:09:35;99343.09;;;7.48;100.00
28167;BME280;15455;53.376;-6.262;2023-10-31T03:12:21;99348.25;;;7.52;100.00
28167;BME280;15455;53.376;-6.262;2023-10-31T03:15:07;99344.75;;;7.56;100.00
28167;BME280;15455;53.376;-6.262;2023-10-31T03:17:52;99349.03;;;7.58;100.00
28167;BME280;15455;53.376;-6.262;2023-10-31T03:20:39;99350.69;;;7.62;100.00
28167;BME280;15455;53.376;-6.262;2023-10-31T03:23:25;99352.41;;;7.65;100.00
28167;BME280;15455;53.376;-6.262;2023-10-31T03:26:11;99350.69;;;7.65;100.00
28167;BME280;15455;53.376;-6.262;2023-10-31T03:28:56;99347.19;;;7.67;100.00
28167;BME280;15455;53.376;-6.262;2023-10-31T03:31:42;99349.75;;;7.68;100.00
28167;BME280;15455;53.376;-6.262;2023-10-31T03:34:28;99343.72;;;7.68;100.00
28167;BME280;15455;53.376;-6.262;2023-10-31T03:37:14;99342.00;;;7.65;100.00
28167;BME280;15455;53.376;-6.262;2023-10-31T03:40:00;99354.19;;;7.61;100.00
28167;BME280;15455;53.376;-6.262;2023-10-31T03:42:45;99343.84;;;7.60;100.00
28167;BME280;15455;53.376;-6.262;2023-10-31T03:45:31;99346.44;;;7.58;100.00
28167;BME280;15455;53.376;-6.262;2023-10-31T03:48:17;99349.91;;;7.57;100.00
28167;BME280;15455;53.376;-6.262;2023-10-31T03:51:03;99344.72;;;7.57;100.00
28167;BME280;15455;53.376;-6.262;2023-10-31T03:53:49;99347.34;;;7.56;100.00
28167;BME280;15455;53.376;-6.262;2023-10-31T03:56:41;99347.38;;;7.54;100.00
28167;BME280;15455;53.376;-6.262;2023-10-31T03:59:27;99351.69;;;7.52;100.00
28167;BME280;15455;53.376;-6.262;2023-10-31T04:02:12;99345.72;;;7.47;100.00
28167;BME280;15455;53.376;-6.262;2023-10-31T04:04:59;99346.66;;;7.41;100.00
28167;BME280;15455;53.376;-6.262;2023-10-31T04:07:46;99348.47;;;7.33;100.00
28167;BME280;15455;53.376;-6.262;2023-10-31T04:10:32;99345.13;;;7.23;100.00
28167;BME280;15455;53.376;-6.262;2023-10-31T04:13:18;99357.28;;;7.20;100.00
28167;BME280;15455;53.376;-6.262;2023-10-31T04:16:04;99363.31;;;7.20;100.00
28167;BME280;15455;53.376;-6.262;2023-10-31T04:18:49;99364.97;;;7.27;100.00
28167;BME280;15455;53.376;-6.262;2023-10-31T04:21:34;99357.97;;;7.34;100.00
28167;BME280;15455;53.376;-6.262;2023-10-31T04:24:20;99368.25;;;7.43;100.00
28167;BME280;15455;53.376;-6.262;2023-10-31T04:27:05;99365.56;;;7.50;100.00
28167;BME280;15455;53.376;-6.262;2023-10-31T04:29:52;99366.38;;;7.55;100.00
28167;BME280;15455;53.376;-6.262;2023-10-31T04:32:38;99374.09;;;7.61;100.00
28167;BME280;15455;53.376;-6.262;2023-10-31T04:35:23;99374.03;;;7.64;100.00
28167;BME280;15455;53.376;-6.262;2023-10-31T04:38:09;99380.13;;;7.64;100.00
28167;BME280;15455;53.376;-6.262;2023-10-31T04:40:54;99391.31;;;7.67;100.00
28167;BME280;15455;53.376;-6.262;2023-10-31T04:43:39;99382.69;;;7.66;100.00
28167;BME280;15455;53.376;-6.262;2023-10-31T04:46:27;99386.13;;;7.68;100.00
28167;BME280;15455;53.376;-6.262;2023-10-31T04:49:12;99384.34;;;7.72;100.00
28167;BME280;15455;53.376;-6.262;2023-10-31T04:51:58;99386.09;;;7.73;100.00
28167;BME280;15455;53.376;-6.262;2023-10-31T04:54:43;99391.28;;;7.73;100.00
28167;BME280;15455;53.376;-6.262;2023-10-31T04:57:29;99394.75;;;7.72;100.00
28167;BME280;15455;53.376;-6.262;2023-10-31T05:00:14;99393.84;;;7.71;100.00
28167;BME280;15455;53.376;-6.262;2023-10-31T05:03:00;99404.22;;;7.74;100.00
28167;BME280;15455;53.376;-6.262;2023-10-31T05:05:47;99403.28;;;7.78;100.00
28167;BME280;15455;53.376;-6.262;2023-10-31T05:08:33;99399.78;;;7.82;100.00
28167;BME280;15455;53.376;-6.262;2023-10-31T05:11:18;99411.84;;;7.88;100.00
28167;BME280;15455;53.376;-6.262;2023-10-31T05:14:04;99404.91;;;7.90;100.00
28167;BME280;15455;53.376;-6.262;2023-10-31T05:16:49;99413.59;;;7.88;100.00
28167;BME280;15455;53.376;-6.262;2023-10-31T05:19:35;99420.53;;;7.87;100.00
28167;BME280;15455;53.376;-6.262;2023-10-31T05:22:20;99416.19;;;7.86;100.00
28167;BME280;15455;53.376;-6.262;2023-10-31T05:25:10;99412.72;;;7.89;100.00
28167;BME280;15455;53.376;-6.262;2023-10-31T05:27:55;99418.72;;;7.92;100.00
28167;BME280;15455;53.376;-6.262;2023-10-31T05:30:40;99411.75;;;7.93;100.00
28167;BME280;15455;53.376;-6.262;2023-10-31T05:33:26;99417.00;;;7.90;100.00
28167;BME280;15455;53.376;-6.262;2023-10-31T05:36:25;99417.06;;;7.85;100.00
28167;BME280;15455;53.376;-6.262;2023-10-31T05:39:10;99423.19;;;7.81;100.00
28167;BME280;15455;53.376;-6.262;2023-10-31T05:41:56;99424.03;;;7.83;100.00
28167;BME280;15455;53.376;-6.262;2023-10-31T05:44:41;99424.00;;;7.85;100.00
28167;BME280;15455;53.376;-6.262;2023-10-31T05:47:27;99425.72;;;7.87;100.00
28167;BME280;15455;53.376;-6.262;2023-10-31T05:50:13;99427.44;;;7.87;100.00
28167;BME280;15455;53.376;-6.262;2023-10-31T05:52:58;99434.31;;;7.91;100.00
28167;BME280;15455;53.376;-6.262;2023-10-31T05:55:43;99438.59;;;7.95;100.00
28167;BME280;15455;53.376;-6.262;2023-10-31T05:58:29;99439.41;;;7.98;100.00
28167;BME280;15455;53.376;-6.262;2023-10-31T06:01:14;99441.97;;;8.00;100.00
28167;BME280;15455;53.376;-6.262;2023-10-31T06:04:00;99447.13;;;8.05;100.00
28167;BME280;15455;53.376;-6.262;2023-10-31T06:06:45;99442.78;;;8.07;100.00
28167;BME280;15455;53.376;-6.262;2023-10-31T06:09:31;99454.00;;;8.09;100.00
28167;BME280;15455;53.376;-6.262;2023-10-31T06:12:18;99453.13;;;8.08;100.00
28167;BME280;15455;53.376;-6.262;2023-10-31T06:15:04;99460.09;;;8.08;100.00
28167;BME280;15455;53.376;-6.262;2023-10-31T06:17:49;99468.72;;;8.08;100.00
28167;BME280;15455;53.376;-6.262;2023-10-31T06:20:35;99473.94;;;8.07;100.00
28167;BME280;15455;53.376;-6.262;2023-10-31T06:23:21;99470.50;;;8.06;100.00
28167;BME280;15455;53.376;-6.262;2023-10-31T06:26:06;99480.03;;;8.04;100.00
28167;BME280;15455;53.376;-6.262;2023-10-31T06:28:51;99478.34;;;8.03;100.00
28167;BME280;15455;53.376;-6.262;2023-10-31T06:31:57;99480.06;;;8.03;100.00
28167;BME280;15455;53.376;-6.262;2023-10-31T06:34:42;99473.16;;;8.00;100.00
28167;BME280;15455;53.376;-6.262;2023-10-31T06:37:28;99479.25;;;7.99;100.00
28167;BME280;15455;53.376;-6.262;2023-10-31T06:40:14;99482.75;;;7.96;100.00
28167;BME280;15455;53.376;-6.262;2023-10-31T06:43:01;99481.00;;;7.97;100.00
28167;BME280;15455;53.376;-6.262;2023-10-31T06:45:46;99481.00;;;7.97;100.00
28167;BME280;15455;53.376;-6.262;2023-10-31T06:48:32;99482.75;;;7.95;100.00
28167;BME280;15455;53.376;-6.262;2023-10-31T06:51:18;99486.22;;;7.95;100.00
28167;BME280;15455;53.376;-6.262;2023-10-31T06:54:03;99479.28;;;7.96;100.00
28167;BME280;15455;53.376;-6.262;2023-10-31T06:56:49;99489.69;;;7.96;100.00
28167;BME280;15455;53.376;-6.262;2023-10-31T06:59:34;99495.72;;;7.96;100.00
28167;BME280;15455;53.376;-6.262;2023-10-31T07:02:20;99503.50;;;7.98;100.00
28167;BME280;15455;53.376;-6.262;2023-10-31T07:05:06;99507.84;;;7.97;100.00
28167;BME280;15455;53.376;-6.262;2023-10-31T07:07:51;99504.34;;;7.98;100.00
28167;BME280;15455;53.376;-6.262;2023-10-31T07:10:37;99510.44;;;7.99;100.00
28167;BME280;15455;53.376;-6.262;2023-10-31T07:13:22;99517.31;;;8.00;100.00
28167;BME280;15455;53.376;-6.262;2023-10-31T07:16:08;99512.13;;;8.00;100.00
28167;BME280;15455;53.376;-6.262;2023-10-31T07:18:53;99526.00;;;8.00;100.00
28167;BME280;15455;53.376;-6.262;2023-10-31T07:21:39;99521.69;;;7.99;100.00
28167;BME280;15455;53.376;-6.262;2023-10-31T07:24:24;99526.88;;;7.99;100.00
28167;BME280;15455;53.376;-6.262;2023-10-31T07:27:12;99530.31;;;8.00;100.00
28167;BME280;15455;53.376;-6.262;2023-10-31T07:29:58;99535.50;;;8.00;100.00
28167;BME280;15455;53.376;-6.262;2023-10-31T07:32:44;99536.41;;;7.99;100.00
28167;BME280;15455;53.376;-6.262;2023-10-31T07:35:30;99541.59;;;7.99;100.00
28167;BME280;15455;53.376;-6.262;2023-10-31T07:38:17;99541.59;;;7.99;100.00
28167;BME280;15455;53.376;-6.262;2023-10-31T07:41:03;99545.94;;;7.98;100.00
28167;BME280;15455;53.376;-6.262;2023-10-31T07:43:49;99551.13;;;7.98;100.00
28167;BME280;15455;53.376;-6.262;2023-10-31T07:46:34;99558.94;;;7.97;100.00
28167;BME280;15455;53.376;-6.262;2023-10-31T07:49:21;99568.47;;;7.98;100.00
28167;BME280;15455;53.376;-6.262;2023-10-31T07:52:07;99570.22;;;7.97;100.00
28167;BME280;15455;53.376;-6.262;2023-10-31T07:54:52;99561.59;;;7.92;100.00
28167;BME280;15455;53.376;-6.262;2023-10-31T07:57:38;99572.88;;;7.90;100.00
28167;BME280;15455;53.376;-6.262;2023-10-31T08:00:23;99577.22;;;7.89;100.00
28167;BME280;15455;53.376;-6.262;2023-10-31T08:03:09;99576.38;;;7.87;100.00
28167;BME280;15455;53.376;-6.262;2023-10-31T08:05:55;99577.22;;;7.88;100.00
28167;BME280;15455;53.376;-6.262;2023-10-31T08:08:40;99585.91;;;7.85;100.00
28167;BME280;15455;53.376;-6.262;2023-10-31T08:11:25;99585.91;;;7.85;100.00
28167;BME280;15455;53.376;-6.262;2023-10-31T08:14:11;99579.88;;;7.85;100.00
28167;BME280;15455;53.376;-6.262;2023-10-31T08:16:57;99587.69;;;7.83;100.00
28167;BME280;15455;53.376;-6.262;2023-10-31T08:19:42;99588.50;;;7.85;100.00
28167;BME280;15455;53.376;-6.262;2023-10-31T08:22:27;99592.84;;;7.85;100.00
28167;BME280;15455;53.376;-6.262;2023-10-31T08:25:13;99593.66;;;7.88;100.00
28167;BME280;15455;53.376;-6.262;2023-10-31T08:27:59;99595.41;;;7.89;100.00
28167;BME280;15455;53.376;-6.262;2023-10-31T08:30:44;99594.50;;;7.93;100.00
28167;BME280;15455;53.376;-6.262;2023-10-31T08:33:30;99603.09;;;7.97;100.00
28167;BME280;15455;53.376;-6.262;2023-10-31T08:36:16;99603.06;;;8.00;100.00
28167;BME280;15455;53.376;-6.262;2023-10-31T08:39:01;99610.84;;;8.03;100.00
28167;BME280;15455;53.376;-6.262;2023-10-31T08:41:57;99620.34;;;8.04;100.00
28167;BME280;15455;53.376;-6.262;2023-10-31T08:44:43;99629.00;;;8.06;100.00
28167;BME280;15455;53.376;-6.262;2023-10-31T08:47:29;99629.00;;;8.08;100.00
28167;BME280;15455;53.376;-6.262;2023-10-31T08:50:15;99635.88;;;8.09;100.00
28167;BME280;15455;53.376;-6.262;2023-10-31T08:53:00;99632.47;;;8.07;100.00
28167;BME280;15455;53.376;-6.262;2023-10-31T08:55:47;99628.97;;;8.09;100.00
28167;BME280;15455;53.376;-6.262;2023-10-31T08:58:33;99628.94;;;8.11;100.00
28167;BME280;15455;53.376;-6.262;2023-10-31T09:01:19;99624.59;;;8.11;100.00
28167;BME280;15455;53.376;-6.262;2023-10-31T09:04:05;99634.97;;;8.14;100.00
28167;BME280;15455;53.376;-6.262;2023-10-31T09:06:51;99620.31;;;8.07;100.00
28167;BME280;15455;53.376;-6.262;2023-10-31T09:09:37;99622.13;;;8.00;100.00
28167;BME280;15455;53.376;-6.262;2023-10-31T09:12:23;99624.00;;;7.88;100.00
28167;BME280;15455;53.376;-6.262;2023-10-31T09:15:08;99630.13;;;7.80;100.00
28167;BME280;15455;53.376;-6.262;2023-10-31T09:17:55;99628.41;;;7.78;100.00
28167;BME280;15455;53.376;-6.262;2023-10-31T09:20:40;99625.78;;;7.81;100.00
28167;BME280;15455;53.376;-6.262;2023-10-31T09:23:26;99631.72;;;7.92;100.00
28167;BME280;15455;53.376;-6.262;2023-10-31T09:26:12;99626.44;;;8.05;100.00
28167;BME280;15455;53.376;-6.262;2023-10-31T09:28:57;99632.34;;;8.16;100.00
28167;BME280;15455;53.376;-6.262;2023-10-31T09:31:42;99638.28;;;8.29;100.00
28167;BME280;15455;53.376;-6.262;2023-10-31T09:34:28;99640.84;;;8.35;100.00
28167;BME280;15455;53.376;-6.262;2023-10-31T09:37:13;99638.16;;;8.40;100.00
28167;BME280;15455;53.376;-6.262;2023-10-31T09:39:59;99640.75;;;8.44;100.00
28167;BME280;15455;53.376;-6.262;2023-10-31T09:42:45;99652.00;;;8.48;100.00
28167;BME280;15455;53.376;-6.262;2023-10-31T09:45:32;99658.00;;;8.51;100.00
28167;BME280;15455;53.376;-6.262;2023-10-31T09:48:19;99657.13;;;8.52;100.00
28167;BME280;15455;53.376;-6.262;2023-10-31T09:51:05;99652.72;;;8.56;100.00
28167;BME280;15455;53.376;-6.262;2023-10-31T09:53:54;99649.22;;;8.60;100.00
28167;BME280;15455;53.376;-6.262;2023-10-31T09:56:40;99643.97;;;8.63;100.00
28167;BME280;15455;53.376;-6.262;2023-10-31T09:59:27;99641.34;;;8.65;100.00
28167;BME280;15455;53.376;-6.262;2023-10-31T10:02:13;99646.53;;;8.66;100.00
28167;BME280;15455;53.376;-6.262;2023-10-31T10:04:58;99652.63;;;8.67;100.00
28167;BME280;15455;53.376;-6.262;2023-10-31T10:07:45;99659.38;;;8.80;100.00
28167;BME280;15455;53.376;-6.262;2023-10-31T10:10:30;99659.19;;;8.96;100.00
28167;BME280;15455;53.376;-6.262;2023-10-31T10:13:18;99659.81;;;9.13;100.00
28167;BME280;15455;53.376;-6.262;2023-10-31T10:16:04;99661.31;;;9.30;100.00
28167;BME280;15455;53.376;-6.262;2023-10-31T10:18:50;99664.63;;;9.39;100.00
28167;BME280;15455;53.376;-6.262;2023-10-31T10:21:50;99665.38;;;9.48;100.00
28167;BME280;15455;53.376;-6.262;2023-10-31T10:24:39;99664.34;;;9.58;100.00
28167;BME280;15455;53.376;-6.262;2023-10-31T10:27:24;99673.03;;;9.57;100.00
28167;BME280;15455;53.376;-6.262;2023-10-31T10:30:11;99661.09;;;9.44;100.00
28167;BME280;15455;53.376;-6.262;2023-10-31T10:32:57;99654.34;;;9.32;100.00
28167;BME280;15455;53.376;-6.262;2023-10-31T10:35:43;99650.16;;;9.20;100.00
28167;BME280;15455;53.376;-6.262;2023-10-31T10:38:31;99639.97;;;9.04;100.00
28167;BME280;15455;53.376;-6.262;2023-10-31T10:41:19;99629.72;;;8.92;100.00
28167;BME280;15455;53.376;-6.262;2023-10-31T10:44:07;99622.91;;;8.83;100.00
28167;BME280;15455;53.376;-6.262;2023-10-31T10:46:54;99628.13;;;8.83;100.00
28167;BME280;15455;53.376;-6.262;2023-10-31T10:49:42;99613.44;;;8.79;100.00
28167;BME280;15455;53.376;-6.262;2023-10-31T10:55:27;99612.47;;;8.85;100.00
28167;BME280;15455;53.376;-6.262;2023-10-31T10:58:27;99614.16;;;8.89;100.00
28167;BME280;15455;53.376;-6.262;2023-10-31T11:01:19;99618.44;;;8.93;100.00
28167;BME280;15455;53.376;-6.262;2023-10-31T11:04:05;99610.63;;;8.95;100.00
28167;BME280;15455;53.376;-6.262;2023-10-31T11:06:52;99611.44;;;9.00;100.00
28167;BME280;15455;53.376;-6.262;2023-10-31T11:09:39;99611.41;;;9.01;100.00
28167;BME280;15455;53.376;-6.262;2023-10-31T11:12:25;99600.19;;;8.96;100.00
28167;BME280;15455;53.376;-6.262;2023-10-31T11:15:16;99594.13;;;8.96;100.00
28167;BME280;15455;53.376;-6.262;2023-10-31T11:18:02;99586.31;;;8.96;100.00
28167;BME280;15455;53.376;-6.262;2023-10-31T11:20:48;99600.22;;;8.95;100.00
28167;BME280;15455;53.376;-6.262;2023-10-31T11:23:35;99602.00;;;8.93;100.00
28167;BME280;15455;53.376;-6.262;2023-10-31T11:26:21;99596.75;;;8.94;100.00
28167;BME280;15455;53.376;-6.262;2023-10-31T11:29:07;99605.34;;;8.99;100.00
28167;BME280;15455;53.376;-6.262;2023-10-31T11:31:55;99603.63;;;8.97;100.00
28167;BME280;15455;53.376;-6.262;2023-10-31T11:34:42;99607.13;;;8.97;100.00
28167;BME280;15455;53.376;-6.262;2023-10-31T11:37:34;99609.69;;;8.99;100.00
28167;BME280;15455;53.376;-6.262;2023-10-31T11:40:21;99612.19;;;9.07;100.00
28167;BME280;15455;53.376;-6.262;2023-10-31T11:43:07;99614.69;;;9.14;100.00
28167;BME280;15455;53.376;-6.262;2023-10-31T11:45:53;99611.13;;;9.18;100.00
28167;BME280;15455;53.376;-6.262;2023-10-31T11:48:49;99621.50;;;9.23;100.00
28167;BME280;15455;53.376;-6.262;2023-10-31T11:51:36;99612.72;;;9.27;100.00
28167;BME280;15455;53.376;-6.262;2023-10-31T11:54:22;99616.19;;;9.29;100.00
28167;BME280;15455;53.376;-6.262;2023-10-31T11:57:07;99607.47;;;9.32;100.00
28167;BME280;15455;53.376;-6.262;2023-10-31T11:59:53;99604.81;;;9.35;100.00
28167;BME280;15455;53.376;-6.262;2023-10-31T12:02:38;99603.84;;;9.42;100.00
28167;BME280;15455;53.376;-6.262;2023-10-31T12:05:24;99601.31;;;9.37;100.00
28167;BME280;15455;53.376;-6.262;2023-10-31T12:08:09;99602.28;;;9.32;100.00
28167;BME280;15455;53.376;-6.262;2023-10-31T12:11:12;99607.38;;;9.38;100.00
28167;BME280;15455;53.376;-6.262;2023-10-31T12:14:02;99603.69;;;9.50;100.00
28167;BME280;15455;53.376;-6.262;2023-10-31T12:16:51;99603.44;;;9.65;100.00
28167;BME280;15455;53.376;-6.262;2023-10-31T12:19:36;99599.75;;;9.79;100.00
28167;BME280;15455;53.376;-6.262;2023-10-31T12:22:22;99597.78;;;9.91;100.00
28167;BME280;15455;53.376;-6.262;2023-10-31T12:25:09;99593.19;;;10.04;100.00
28167;BME280;15455;53.376;-6.262;2023-10-31T12:27:55;99588.59;;;10.17;100.00
28167;BME280;15455;53.376;-6.262;2023-10-31T12:30:48;99568.44;;;10.27;100.00
28167;BME280;15455;53.376;-6.262;2023-10-31T12:33:33;99578.72;;;10.35;100.00
28167;BME280;15455;53.376;-6.262;2023-10-31T12:36:19;99572.53;;;10.40;100.00
28167;BME280;15455;53.376;-6.262;2023-10-31T12:39:07;99557.69;;;10.42;100.00
28167;BME280;15455;53.376;-6.262;2023-10-31T12:41:56;99558.59;;;10.41;100.00
28167;BME280;15455;53.376;-6.262;2023-10-31T12:44:43;99564.81;;;10.36;100.00
28167;BME280;15455;53.376;-6.262;2023-10-31T12:47:29;99573.53;;;10.32;100.00
28167;BME280;15455;53.376;-6.262;2023-10-31T12:50:17;99575.19;;;10.37;100.00
28167;BME280;15455;53.376;-6.262;2023-10-31T12:53:03;99569.78;;;10.47;100.00
28167;BME280;15455;53.376;-6.262;2023-10-31T12:55:49;99578.09;;;10.64;100.00
28167;BME280;15455;53.376;-6.262;2023-10-31T12:58:35;99578.72;;;10.75;100.00
28167;BME280;15455;53.376;-6.262;2023-10-31T13:01:21;99578.53;;;10.83;100.00
28167;BME280;15455;53.376;-6.262;2023-10-31T13:04:07;99580.16;;;10.89;100.00
28167;BME280;15455;53.376;-6.262;2023-10-31T13:07:02;99582.81;;;10.87;100.00
28167;BME280;15455;53.376;-6.262;2023-10-31T13:09:48;99583.56;;;10.92;100.00
28167;BME280;15455;53.376;-6.262;2023-10-31T13:12:34;99585.16;;;11.00;100.00
28167;BME280;15455;53.376;-6.262;2023-10-31T13:15:21;99592.72;;;11.10;100.00
28167;BME280;15455;53.376;-6.262;2023-10-31T13:18:07;99591.66;;;11.19;100.00
28167;BME280;15455;53.376;-6.262;2023-10-31T13:20:56;99581.13;;;11.24;100.00
28167;BME280;15455;53.376;-6.262;2023-10-31T13:23:42;99585.56;;;11.19;100.00
28167;BME280;15455;53.376;-6.262;2023-10-31T13:26:30;99586.53;;;11.15;100.00
28167;BME280;15455;53.376;-6.262;2023-10-31T13:29:15;99574.41;;;11.12;100.00
28167;BME280;15455;53.376;-6.262;2023-10-31T13:32:01;99567.34;;;11.17;100.00
28167;BME280;15455;53.376;-6.262;2023-10-31T13:34:49;99575.56;;;11.36;100.00
28167;BME280;15455;53.376;-6.262;2023-10-31T13:37:35;99570.88;;;11.51;100.00
28167;BME280;15455;53.376;-6.262;2023-10-31T13:40:21;99560.34;;;11.54;100.00
28167;BME280;15455;53.376;-6.262;2023-10-31T13:43:07;99561.81;;;11.64;100.00
28167;BME280;15455;53.376;-6.262;2023-10-31T13:45:53;99546.84;;;11.71;100.00
28167;BME280;15455;53.376;-6.262;2023-10-31T13:48:39;99541.53;;;11.74;100.00
28167;BME280;15455;53.376;-6.262;2023-10-31T13:51:24;99529.38;;;11.71;100.00
28167;BME280;15455;53.376;-6.262;2023-10-31T13:54:10;99521.59;;;11.70;100.00
28167;BME280;15455;53.376;-6.262;2023-10-31T13:56:55;99520.81;;;11.66;100.00
28167;BME280;15455;53.376;-6.262;2023-10-31T13:59:41;99527.03;;;11.62;100.00
28167;BME280;15455;53.376;-6.262;2023-10-31T14:02:26;99533.41;;;11.52;100.00
28167;BME280;15455;53.376;-6.262;2023-10-31T14:05:14;99541.41;;;11.45;100.00
28167;BME280;15455;53.376;-6.262;2023-10-31T14:08:02;99548.50;;;11.40;100.00
28167;BME280;15455;53.376;-6.262;2023-10-31T14:10:48;99552.94;;;11.37;100.00
28167;BME280;15455;53.376;-6.262;2023-10-31T14:13:36;99552.28;;;11.28;100.00
28167;BME280;15455;53.376;-6.262;2023-10-31T14:16:21;99549.09;;;11.16;100.00
28167;BME280;15455;53.376;-6.262;2023-10-31T14:19:07;99552.00;;;11.03;100.00
28167;BME280;15455;53.376;-6.262;2023-10-31T14:21:53;99553.97;;;10.93;100.00
28167;BME280;15455;53.376;-6.262;2023-10-31T14:24:40;99554.97;;;10.88;100.00
28167;BME280;15455;53.376;-6.262;2023-10-31T14:27:25;99560.97;;;10.91;100.00
28167;BME280;15455;53.376;-6.262;2023-10-31T14:30:11;99563.53;;;10.93;100.00